Terminal Aerodrome Forecast
Issued by NWS

Home | Current Version | Previous Version | Text Only | Print | Product List | Glossary On
Versions: 1 2 3 4 5 6 7 8 9 10 11 12 13 14 15 16 17 18
000
FTUS43 KAPX 022334
TAFMBL
TAF
KMBL 022334Z 0300/0324 31009KT P6SM -SHRA OVC021
     FM030600 31007KT P6SM VCSH OVC020
     FM030900 31006KT P6SM VCSH OVC015
     FM031500 28006KT P6SM VCSH OVC015
     FM031900 28007KT P6SM OVC020=

USA.gov is the U.S. government's official web portal to all federal, state and local government web resources and services.